createdAt,value
2022-09-26T00:00:11.463Z,100411.47
2022-09-26T00:02:43.767Z,100402.06
2022-09-26T00:05:13.544Z,100404.84
2022-09-26T00:07:42.433Z,100402.50
2022-09-26T00:10:11.980Z,100396.41
2022-09-26T00:12:45.846Z,100399.88
2022-09-26T00:15:18.220Z,100397.38
2022-09-26T00:17:48.469Z,100403.59
2022-09-26T00:20:21.428Z,100400.16
2022-09-26T00:22:53.592Z,100391.56
2022-09-26T00:25:22.537Z,100393.25
2022-09-26T00:27:51.957Z,100391.56
2022-09-26T00:30:19.771Z,100384.94
2022-09-26T00:32:47.666Z,100390.34
2022-09-26T00:35:16.211Z,100390.34
2022-09-26T00:37:44.271Z,100386.34
2022-09-26T00:40:12.348Z,100392.69
2022-09-26T00:42:40.397Z,100388.44
2022-09-26T00:45:11.469Z,100389.53
2022-09-26T00:47:47.076Z,100381.25
2022-09-26T00:50:21.272Z,100384.00
2022-09-26T00:52:53.871Z,100382.78
2022-09-26T00:55:24.990Z,100382.94
2022-09-26T00:57:55.133Z,100378.63
2022-09-26T01:00:24.650Z,100371.03
2022-09-26T01:02:54.591Z,100369.38
2022-09-26T01:05:24.874Z,100366.75
2022-09-26T01:07:54.979Z,100369.66
2022-09-26T01:10:24.613Z,100374.25
2022-09-26T01:12:53.381Z,100369.13
2022-09-26T01:15:21.064Z,100364.28
2022-09-26T01:17:52.007Z,100359.16
2022-09-26T01:20:34.535Z,100354.19
2022-09-26T01:23:33.179Z,100352.69
2022-09-26T01:26:26.576Z,100358.03
2022-09-26T01:29:24.405Z,100347.81
2022-09-26T01:32:22.457Z,100342.56
2022-09-26T01:34:59.459Z,100347.25
2022-09-26T01:37:33.933Z,100344.06
2022-09-26T01:40:10.110Z,100336.47
2022-09-26T01:42:49.489Z,100338.25
2022-09-26T01:45:23.833Z,100346.28
2022-09-26T01:48:01.940Z,100339.53
2022-09-26T01:50:44.987Z,100323.22
2022-09-26T01:54:00.682Z,100329.28
2022-09-26T01:56:33.675Z,100328.31
2022-09-26T01:59:06.479Z,100331.09
2022-09-26T02:01:40.085Z,100343.66
2022-09-26T02:04:12.300Z,100334.97
2022-09-26T02:06:46.015Z,100328.03
2022-09-26T02:09:18.179Z,100329.97
2022-09-26T02:11:50.801Z,100323.91
2022-09-26T02:14:23.123Z,100322.22
2022-09-26T02:16:53.840Z,100318.91
2022-09-26T02:19:27.027Z,100305.09
2022-09-26T02:21:55.490Z,100307.72
2022-09-26T02:24:23.827Z,100307.72
2022-09-26T02:26:52.105Z,100299.00
2022-09-26T02:29:22.531Z,100293.75
2022-09-26T02:31:57.794Z,100300.00
2022-09-26T02:34:27.375Z,100292.09
2022-09-26T02:36:57.384Z,100295.84
2022-09-26T02:39:28.521Z,100288.09
2022-09-26T02:42:18.364Z,100288.53
2022-09-26T02:45:01.783Z,100292.38
2022-09-26T02:47:47.263Z,100298.19
2022-09-26T02:50:39.777Z,100288.81
2022-09-26T02:53:20.720Z,100289.91
2022-09-26T02:56:05.588Z,100290.88
2022-09-26T02:58:45.798Z,100277.88
2022-09-26T03:01:20.327Z,100275.41
2022-09-26T03:03:54.764Z,100278.31
2022-09-26T03:06:39.451Z,100273.31
2022-09-26T03:09:08.743Z,100274.53
2022-09-26T03:11:37.266Z,100272.91
2022-09-26T03:14:05.645Z,100273.19
2022-09-26T03:16:38.265Z,100270.97
2022-09-26T03:19:12.565Z,100265.97
2022-09-26T03:21:42.159Z,100267.78
2022-09-26T03:24:10.745Z,100265.16
2022-09-26T03:26:39.664Z,100257.28
2022-09-26T03:29:07.368Z,100265.16
2022-09-26T03:31:37.054Z,100265.03
2022-09-26T03:34:07.269Z,100264.34
2022-09-26T03:36:35.089Z,100269.47
2022-09-26T03:39:05.659Z,100270.41
2022-09-26T03:41:42.958Z,100255.63
2022-09-26T03:44:11.333Z,100257.56
2022-09-26T03:46:57.512Z,100262.13
2022-09-26T03:49:25.368Z,100257.13
2022-09-26T03:51:53.159Z,100257.28
2022-09-26T03:54:23.021Z,100257.53
2022-09-26T03:56:51.089Z,100250.66
2022-09-26T03:59:18.793Z,100248.72
2022-09-26T04:01:48.584Z,100246.22
2022-09-26T04:04:16.540Z,100237.09
2022-09-26T04:06:45.585Z,100247.88
2022-09-26T04:09:17.647Z,100245.41
2022-09-26T04:11:53.321Z,100239.28
2022-09-26T04:14:22.185Z,100251.03
2022-09-26T04:16:55.374Z,100249.50
2022-09-26T04:19:33.736Z,100237.25
2022-09-26T04:22:02.102Z,100231.13
2022-09-26T04:24:33.161Z,100234.75
2022-09-26T04:27:02.242Z,100228.66
2022-09-26T04:29:31.235Z,100218.44
2022-09-26T04:32:14.125Z,100220.59
2022-09-26T04:35:03.447Z,100230.81
2022-09-26T04:37:37.096Z,100223.50
2022-09-26T04:40:05.778Z,100229.28
2022-09-26T04:42:37.037Z,100221.13
2022-09-26T04:45:06.540Z,100222.19
2022-09-26T04:47:35.021Z,100227.56
2022-09-26T04:50:27.292Z,100230.06
2022-09-26T04:53:09.423Z,100217.81
2022-09-26T04:55:45.974Z,100207.31
2022-09-26T04:58:17.378Z,100218.63
2022-09-26T05:00:47.817Z,100211.84
2022-09-26T05:03:18.572Z,100204.97
2022-09-26T05:05:48.398Z,100208.53
2022-09-26T05:08:16.407Z,100212.94
2022-09-26T05:10:44.806Z,100215.56
2022-09-26T05:13:12.512Z,100210.84
2022-09-26T05:15:42.863Z,100203.94
2022-09-26T05:18:11.592Z,100213.75
2022-09-26T05:20:40.119Z,100210.56
2022-09-26T05:23:09.286Z,100213.31
2022-09-26T05:25:57.556Z,100204.75
2022-09-26T05:28:25.989Z,100200.59
2022-09-26T05:30:56.968Z,100200.72
2022-09-26T05:33:24.792Z,100209.44
2022-09-26T05:35:54.844Z,100212.44
2022-09-26T05:38:22.969Z,100205.28
2022-09-26T05:40:56.652Z,100205.16
2022-09-26T05:43:25.253Z,100203.34
2022-09-26T05:45:59.163Z,100204.06
2022-09-26T05:48:30.219Z,100212.63
2022-09-26T05:50:58.158Z,100212.63
2022-09-26T05:53:25.934Z,100207.38
2022-09-26T05:55:54.696Z,100210.81
2022-09-26T05:58:36.149Z,100210.25
2022-09-26T06:01:28.423Z,100212.31
2022-09-26T06:04:05.879Z,100206.22
2022-09-26T06:06:44.266Z,100201.00
2022-09-26T06:09:19.252Z,100209.44
2022-09-26T06:11:47.183Z,100205.44
2022-09-26T06:14:14.957Z,100205.44
2022-09-26T06:16:44.018Z,100209.03
2022-09-26T06:19:11.843Z,100202.56
2022-09-26T06:21:40.319Z,100204.78
2022-09-26T06:24:13.186Z,100205.34
2022-09-26T06:26:42.182Z,100204.09
2022-09-26T06:29:11.656Z,100205.78
2022-09-26T06:31:42.283Z,100206.34
2022-09-26T06:34:13.022Z,100198.66
2022-09-26T06:37:10.097Z,100199.53
2022-09-26T06:39:39.051Z,100193.72
2022-09-26T06:42:08.284Z,100193.34
2022-09-26T06:44:48.972Z,100193.22
2022-09-26T06:47:26.171Z,100185.41
2022-09-26T06:50:16.121Z,100177.91
2022-09-26T06:52:47.923Z,100184.50
2022-09-26T06:55:16.093Z,100170.81
2022-09-26T06:57:45.025Z,100177.22
2022-09-26T07:00:16.713Z,100180.00
2022-09-26T07:03:05.654Z,100170.00
2022-09-26T07:05:46.902Z,100171.00
2022-09-26T07:08:16.987Z,100173.13
2022-09-26T07:10:44.943Z,100173.03
2022-09-26T07:13:29.249Z,100169.59
2022-09-26T07:15:59.057Z,100175.94
2022-09-26T07:18:40.056Z,100169.19
2022-09-26T07:21:23.686Z,100166.22
2022-09-26T07:24:03.711Z,100164.13
2022-09-26T07:26:32.686Z,100168.16
2022-09-26T07:29:00.474Z,100170.63
2022-09-26T07:31:30.465Z,100165.88
2022-09-26T07:34:08.591Z,100161.66
2022-09-26T07:36:40.748Z,100163.22
2022-09-26T07:39:09.806Z,100160.56
2022-09-26T07:41:37.671Z,100157.53
2022-09-26T07:47:10.922Z,100147.22
2022-09-26T07:49:56.435Z,100158.78
2022-09-26T07:52:37.296Z,100154.91
2022-09-26T07:55:27.280Z,100145.34
2022-09-26T07:58:10.186Z,100143.06
2022-09-26T08:01:11.373Z,100146.25
2022-09-26T08:04:06.502Z,100139.78
2022-09-26T08:06:38.097Z,100148.53
2022-09-26T08:09:08.114Z,100149.97
2022-09-26T08:11:56.348Z,100149.00
2022-09-26T08:14:42.598Z,100155.09
2022-09-26T08:17:17.495Z,100157.41
2022-09-26T08:19:45.610Z,100156.19
2022-09-26T08:22:14.620Z,100146.06
2022-09-26T08:24:49.697Z,100153.78
2022-09-26T08:27:37.890Z,100155.09
2022-09-26T08:30:07.680Z,100152.84
2022-09-26T08:32:35.284Z,100151.44
2022-09-26T08:35:03.795Z,100147.50
2022-09-26T08:37:57.119Z,100144.06
2022-09-26T08:40:51.286Z,100143.56
2022-09-26T08:44:06.312Z,100128.06
2022-09-26T08:47:01.257Z,100142.06
2022-09-26T08:49:43.083Z,100147.34
2022-09-26T08:52:34.280Z,100137.94
2022-09-26T08:55:06.709Z,100133.97
2022-09-26T08:57:41.843Z,100117.16
2022-09-26T09:00:20.098Z,100123.91
2022-09-26T09:03:05.186Z,100118.97
2022-09-26T09:05:39.105Z,100123.28
2022-09-26T09:08:13.681Z,100111.06
2022-09-26T09:11:01.949Z,100120.63
2022-09-26T09:13:48.935Z,100115.31
2022-09-26T09:16:51.634Z,100111.81
2022-09-26T09:19:50.698Z,100098.00
2022-09-26T09:22:53.694Z,100102.31
2022-09-26T09:25:32.497Z,100097.53
2022-09-26T09:28:16.766Z,100088.31
2022-09-26T09:30:49.576Z,100097.69
2022-09-26T09:33:39.719Z,100098.22
2022-09-26T09:36:33.097Z,100097.59
2022-09-26T09:39:27.624Z,100104.00
2022-09-26T09:42:06.402Z,100089.28
2022-09-26T09:44:46.771Z,100097.28
2022-09-26T09:47:18.408Z,100087.50
2022-09-26T09:49:49.077Z,100085.44
2022-09-26T09:52:35.803Z,100071.13
2022-09-26T09:55:17.201Z,100075.59
2022-09-26T09:58:07.417Z,100081.53
2022-09-26T10:00:42.494Z,100070.47
2022-09-26T10:03:27.751Z,100069.31
2022-09-26T10:06:00.960Z,100067.84
2022-09-26T10:08:34.514Z,100069.91
2022-09-26T10:11:19.472Z,100058.72
2022-09-26T10:14:09.446Z,100066.19
2022-09-26T10:17:20.631Z,100049.03
2022-09-26T10:20:10.231Z,100049.75
2022-09-26T10:22:45.584Z,100049.81
2022-09-26T10:25:26.795Z,100043.31
2022-09-26T10:27:57.579Z,100041.19
2022-09-26T10:30:32.302Z,100041.31
2022-09-26T10:33:26.265Z,100029.81
2022-09-26T10:36:32.762Z,100030.00
2022-09-26T10:39:21.842Z,100032.03
2022-09-26T10:41:59.174Z,100030.53
2022-09-26T10:44:29.923Z,100020.91
2022-09-26T10:47:09.502Z,100023.63
2022-09-26T10:50:06.761Z,100013.56
2022-09-26T10:52:49.684Z,100010.06
2022-09-26T10:55:24.899Z,100018.13
2022-09-26T10:57:56.903Z,100009.81
2022-09-26T11:00:39.064Z,100008.81
2022-09-26T11:03:17.092Z,100006.56
2022-09-26T11:06:05.406Z,100009.44
2022-09-26T11:08:38.762Z,99994.03
2022-09-26T11:11:23.200Z,100000.66
2022-09-26T11:14:03.543Z,99996.59
2022-09-26T11:16:39.562Z,99993.69
2022-09-26T11:19:15.795Z,99979.56
2022-09-26T11:21:49.669Z,99984.88
2022-09-26T11:24:25.839Z,99991.69
2022-09-26T11:27:05.686Z,99975.94
2022-09-26T11:29:42.907Z,99974.75
2022-09-26T11:32:25.431Z,99984.25
2022-09-26T11:35:44.109Z,99972.69
2022-09-26T11:38:38.382Z,99970.44
2022-09-26T11:41:38.318Z,99964.84
2022-09-26T11:44:33.717Z,99971.72
2022-09-26T11:47:46.485Z,99969.38
2022-09-26T11:50:35.655Z,99962.41
2022-09-26T11:53:52.904Z,99961.78
2022-09-26T11:56:39.536Z,99946.50
2022-09-26T11:59:23.616Z,99948.56
2022-09-26T12:01:55.988Z,99947.25
2022-09-26T12:04:48.181Z,99946.19
2022-09-26T12:07:22.365Z,99938.81
2022-09-26T12:10:07.218Z,99939.19
2022-09-26T12:12:48.054Z,99928.41
2022-09-26T12:15:23.710Z,99917.59
2022-09-26T12:18:08.315Z,99918.00
2022-09-26T12:20:41.341Z,99915.19
2022-09-26T12:23:21.285Z,99910.41
2022-09-26T12:26:00.783Z,99909.75
2022-09-26T12:28:51.263Z,99899.94
2022-09-26T12:31:29.362Z,99910.34
2022-09-26T12:34:12.362Z,99897.75
2022-09-26T12:36:55.659Z,99913.59
2022-09-26T12:39:42.533Z,99903.66
2022-09-26T12:42:25.559Z,99894.22
2022-09-26T12:45:15.299Z,99895.91
2022-09-26T12:48:14.737Z,99894.19
2022-09-26T12:50:54.502Z,99882.88
2022-09-26T12:53:55.383Z,99891.66
2022-09-26T12:56:37.323Z,99877.59
2022-09-26T12:59:17.230Z,99873.22
2022-09-26T13:02:07.868Z,99870.91
2022-09-26T13:05:06.126Z,99862.25
2022-09-26T13:07:48.456Z,99868.84
2022-09-26T13:10:38.104Z,99860.16
2022-09-26T13:13:29.098Z,99879.28
2022-09-26T13:16:13.565Z,99866.59
2022-09-26T13:18:47.235Z,99864.19
2022-09-26T13:21:21.194Z,99872.28
2022-09-26T13:23:55.936Z,99860.56
2022-09-26T13:26:29.114Z,99849.19
2022-09-26T13:29:17.176Z,99853.91
2022-09-26T13:31:48.987Z,99850.81
2022-09-26T13:34:25.290Z,99846.75
2022-09-26T13:37:00.273Z,99841.72
2022-09-26T13:39:35.511Z,99851.72
2022-09-26T13:42:11.695Z,99843.19
2022-09-26T13:44:58.065Z,99841.25
2022-09-26T13:47:38.460Z,99838.59
2022-09-26T13:50:26.466Z,99841.25
2022-09-26T13:53:09.391Z,99827.56
2022-09-26T13:55:38.959Z,99830.34
2022-09-26T13:58:22.304Z,99824.88
2022-09-26T14:00:53.928Z,99822.19
2022-09-26T14:03:48.885Z,99818.22
2022-09-26T14:06:41.387Z,99813.59
2022-09-26T14:09:25.080Z,99805.84
2022-09-26T14:12:37.141Z,99802.19
2022-09-26T14:15:24.979Z,99795.97
2022-09-26T14:18:21.349Z,99795.97
2022-09-26T14:21:07.249Z,99792.81
2022-09-26T14:23:51.489Z,99783.56
2022-09-26T14:26:26.405Z,99780.81
2022-09-26T14:29:28.421Z,99776.88
2022-09-26T14:32:04.976Z,99777.88
2022-09-26T14:34:42.521Z,99773.22
2022-09-26T14:37:34.376Z,99776.88
2022-09-26T14:40:26.917Z,99767.47
2022-09-26T14:43:00.630Z,99769.81
2022-09-26T14:45:51.262Z,99765.75
2022-09-26T14:48:45.118Z,99754.69
2022-09-26T14:51:35.089Z,99758.34
2022-09-26T14:54:08.098Z,99755.56
2022-09-26T14:56:49.485Z,99747.53
2022-09-26T14:59:44.340Z,99746.53
2022-09-26T15:02:41.892Z,99748.88
2022-09-26T15:05:26.736Z,99749.53
2022-09-26T15:08:01.139Z,99743.75
2022-09-26T15:10:42.971Z,99748.66
2022-09-26T15:13:23.398Z,99744.06
2022-09-26T15:16:02.382Z,99742.16
2022-09-26T15:18:42.235Z,99735.38
2022-09-26T15:21:23.847Z,99738.53
2022-09-26T15:23:56.445Z,99732.28
2022-09-26T15:26:34.520Z,99734.91
2022-09-26T15:29:12.487Z,99734.63
2022-09-26T15:31:48.503Z,99720.94
2022-09-26T15:34:25.399Z,99727.53
2022-09-26T15:36:58.828Z,99731.53
2022-09-26T15:39:48.795Z,99728.22
2022-09-26T15:42:44.525Z,99722.47
2022-09-26T15:45:30.520Z,99724.28
2022-09-26T15:48:04.047Z,99715.56
2022-09-26T15:50:42.626Z,99714.88
2022-09-26T15:56:24.444Z,99712.56
2022-09-26T15:59:00.014Z,99703.53
2022-09-26T16:01:31.671Z,99703.06
2022-09-26T16:04:05.014Z,99698.78
2022-09-26T16:06:43.589Z,99710.31
2022-09-26T16:09:22.344Z,99713.31
2022-09-26T16:11:54.229Z,99709.81
2022-09-26T16:14:33.769Z,99695.19
2022-09-26T16:17:20.857Z,99697.00
2022-09-26T16:19:55.922Z,99694.53
2022-09-26T16:22:53.688Z,99693.22
2022-09-26T16:25:37.580Z,99692.56
2022-09-26T16:28:45.758Z,99696.88
2022-09-26T16:31:30.027Z,99703.00
2022-09-26T16:34:03.894Z,99696.22
2022-09-26T16:36:38.560Z,99687.84
2022-09-26T16:39:27.119Z,99690.16
2022-09-26T16:42:12.857Z,99683.75
2022-09-26T16:44:44.545Z,99686.72
2022-09-26T16:47:35.240Z,99684.44
2022-09-26T16:50:41.324Z,99685.56
2022-09-26T16:53:18.340Z,99684.75
2022-09-26T16:56:16.864Z,99673.41
2022-09-26T16:58:52.832Z,99672.91
2022-09-26T17:01:39.885Z,99672.94
2022-09-26T17:04:13.984Z,99671.44
2022-09-26T17:06:46.809Z,99674.56
2022-09-26T17:09:43.660Z,99657.47
2022-09-26T17:12:19.333Z,99663.72
2022-09-26T17:14:52.528Z,99667.84
2022-09-26T17:17:35.321Z,99661.41
2022-09-26T17:20:05.567Z,99659.94
2022-09-26T17:22:43.245Z,99663.84
2022-09-26T17:25:27.969Z,99660.09
2022-09-26T17:27:59.778Z,99662.03
2022-09-26T17:30:43.249Z,99664.34
2022-09-26T17:33:20.214Z,99662.88
2022-09-26T17:36:00.945Z,99666.13
2022-09-26T17:38:38.589Z,99666.31
2022-09-26T17:41:11.206Z,99661.34
2022-09-26T17:43:41.985Z,99656.78
2022-09-26T17:46:16.420Z,99659.72
2022-09-26T17:48:48.235Z,99660.03
2022-09-26T17:51:23.441Z,99652.97
2022-09-26T17:54:06.116Z,99648.88
2022-09-26T17:56:41.203Z,99650.97
2022-09-26T17:59:16.810Z,99646.53
2022-09-26T18:01:48.525Z,99644.72
2022-09-26T18:04:25.648Z,99642.25
2022-09-26T18:07:01.577Z,99639.78
2022-09-26T18:09:35.529Z,99639.28
2022-09-26T18:12:05.614Z,99636.16
2022-09-26T18:14:38.863Z,99635.66
2022-09-26T18:17:07.500Z,99639.25
2022-09-26T18:19:45.034Z,99633.34
2022-09-26T18:22:21.538Z,99632.16
2022-09-26T18:24:54.940Z,99631.00
2022-09-26T18:27:29.310Z,99633.97
2022-09-26T18:29:59.209Z,99634.44
2022-09-26T18:32:34.003Z,99640.00
2022-09-26T18:35:01.769Z,99636.38
2022-09-26T18:37:35.293Z,99636.69
2022-09-26T18:40:05.223Z,99633.41
2022-09-26T18:42:44.548Z,99630.56
2022-09-26T18:45:17.824Z,99626.41
2022-09-26T18:47:48.389Z,99627.41
2022-09-26T18:50:27.080Z,99622.47
2022-09-26T18:52:58.359Z,99628.69
2022-09-26T18:55:47.060Z,99623.91
2022-09-26T18:58:29.614Z,99628.97
2022-09-26T19:01:01.757Z,99623.88
2022-09-26T19:03:32.698Z,99627.34
2022-09-26T19:06:12.631Z,99622.25
2022-09-26T19:08:46.318Z,99616.50
2022-09-26T19:11:35.775Z,99624.84
2022-09-26T19:14:38.716Z,99604.44
2022-09-26T19:17:07.253Z,99614.13
2022-09-26T19:19:37.311Z,99618.53
2022-09-26T19:22:14.091Z,99605.25
2022-09-26T19:24:49.274Z,99602.13
2022-09-26T19:27:27.531Z,99590.28
2022-09-26T19:30:04.594Z,99592.56
2022-09-26T19:35:39.119Z,99597.81
2022-09-26T19:38:17.851Z,99586.28
2022-09-26T19:40:48.845Z,99597.78
2022-09-26T19:43:17.174Z,99596.28
2022-09-26T19:45:47.164Z,99579.00
2022-09-26T19:48:18.511Z,99573.91
2022-09-26T19:50:48.309Z,99583.75
2022-09-26T19:53:18.115Z,99578.50
2022-09-26T19:55:50.514Z,99578.66
2022-09-26T19:58:20.713Z,99590.00
2022-09-26T20:00:51.418Z,99583.25
2022-09-26T20:03:21.088Z,99580.13
2022-09-26T20:05:50.475Z,99572.69
2022-09-26T20:08:21.984Z,99578.41
2022-09-26T20:10:50.116Z,99575.13
2022-09-26T20:13:19.159Z,99570.69
2022-09-26T20:15:47.777Z,99572.34
2022-09-26T20:18:20.693Z,99575.94
2022-09-26T20:20:54.417Z,99572.13
2022-09-26T20:23:24.298Z,99563.91
2022-09-26T20:25:53.780Z,99556.19
2022-09-26T20:28:22.112Z,99550.78
2022-09-26T20:30:52.653Z,99543.88
2022-09-26T20:33:23.788Z,99546.50
2022-09-26T20:35:53.931Z,99545.69
2022-09-26T20:38:27.031Z,99547.81
2022-09-26T20:41:01.726Z,99541.56
2022-09-26T20:43:33.541Z,99543.38
2022-09-26T20:46:11.045Z,99534.00
2022-09-26T20:48:42.884Z,99535.81
2022-09-26T20:51:19.063Z,99526.97
2022-09-26T20:53:46.772Z,99526.13
2022-09-26T20:56:16.889Z,99531.38
2022-09-26T20:58:45.313Z,99524.03
2022-09-26T21:01:14.670Z,99515.31
2022-09-26T21:03:45.653Z,99527.47
2022-09-26T21:06:17.486Z,99517.94
2022-09-26T21:08:45.800Z,99514.34
2022-09-26T21:11:15.321Z,99512.53
2022-09-26T21:13:43.276Z,99515.03
2022-09-26T21:16:13.970Z,99510.78
2022-09-26T21:18:45.175Z,99509.78
2022-09-26T21:21:21.964Z,99508.97
2022-09-26T21:23:59.547Z,99496.66
2022-09-26T21:26:29.969Z,99506.03
2022-09-26T21:28:58.771Z,99502.56
2022-09-26T21:31:29.680Z,99495.69
2022-09-26T21:34:00.528Z,99498.47
2022-09-26T21:36:34.961Z,99491.41
2022-09-26T21:39:03.287Z,99493.88
2022-09-26T21:41:31.067Z,99488.47
2022-09-26T21:44:02.811Z,99492.91
2022-09-26T21:46:30.950Z,99488.47
2022-09-26T21:49:00.160Z,99483.06
2022-09-26T21:51:29.195Z,99482.25
2022-09-26T21:54:02.307Z,99480.59
2022-09-26T21:56:34.077Z,99468.16
2022-09-26T21:59:01.836Z,99474.09
2022-09-26T22:01:29.975Z,99475.22
2022-09-26T22:03:58.491Z,99461.59
2022-09-26T22:06:27.839Z,99464.19
2022-09-26T22:08:55.663Z,99452.22
2022-09-26T22:11:23.290Z,99453.06
2022-09-26T22:13:51.151Z,99443.38
2022-09-26T22:16:18.880Z,99441.56
2022-09-26T22:18:46.879Z,99432.88
2022-09-26T22:21:14.753Z,99429.25
2022-09-26T22:23:43.769Z,99429.94
2022-09-26T22:26:11.599Z,99427.63
2022-09-26T22:28:39.914Z,99421.56
2022-09-26T22:31:07.975Z,99423.34
2022-09-26T22:33:35.732Z,99421.03
2022-09-26T22:36:03.754Z,99426.13
2022-09-26T22:38:33.308Z,99420.06
2022-09-26T22:41:03.891Z,99412.84
2022-09-26T22:43:33.149Z,99406.94
2022-09-26T22:46:05.546Z,99401.56
2022-09-26T22:48:34.216Z,99400.41
2022-09-26T22:51:02.048Z,99405.84
2022-09-26T22:53:31.715Z,99395.50
2022-09-26T22:56:05.451Z,99393.03
2022-09-26T22:58:37.735Z,99388.75
2022-09-26T23:01:07.809Z,99386.78
2022-09-26T23:03:36.206Z,99393.69
2022-09-26T23:06:05.146Z,99383.84
2022-09-26T23:08:33.544Z,99384.66
2022-09-26T23:11:02.721Z,99382.22
2022-09-26T23:13:32.236Z,99374.50
2022-09-26T23:16:06.328Z,99359.88
2022-09-26T23:18:34.767Z,99360.69
2022-09-26T23:21:09.968Z,99360.69
2022-09-26T23:23:38.558Z,99355.16
2022-09-26T23:26:07.799Z,99345.66
2022-09-26T23:28:36.095Z,99338.09
2022-09-26T23:31:09.894Z,99338.25
2022-09-26T23:33:38.020Z,99346.13
2022-09-26T23:36:06.844Z,99337.59
2022-09-26T23:38:36.049Z,99330.19
2022-09-26T23:41:04.297Z,99335.91
2022-09-26T23:43:33.038Z,99334.06
2022-09-26T23:46:00.825Z,99332.56
2022-09-26T23:48:29.908Z,99323.03
2022-09-26T23:50:58.240Z,99319.59
2022-09-26T23:53:26.051Z,99320.41
2022-09-26T23:55:54.013Z,99318.75
2022-09-26T23:58:21.655Z,99316.31
